Time;durP1;ratioP1;P1;durP2;ratioP2;P2;SDS_P1;SDS_P2;PMS_P1;PMS_P2;Temp;Humidity;BMP_temperature;BMP_pressure;BME280_temperature;BME280_humidity;BME280_pressure;Samples;Min_cycle;Max_cycle;Signal;HPM_P1;HPM_P2
2021/04/20 00:02:02;;;;;;;42.15;30.92;;;;;;;6.53;75.51;99825.59;4954465;28;20027;-68
2021/04/20 00:04:27;;;;;;;35.70;26.27;;;;;;;6.51;75.49;99829.19;4971526;28;20097;-69
2021/04/20 00:06:53;;;;;;;34.22;25.40;;;;;;;6.47;75.13;99817.94;4971404;28;20113;-69
2021/04/20 00:09:18;;;;;;;40.40;28.73;;;;;;;6.39;75.27;99822.56;4971555;28;20106;-68
2021/04/20 00:11:44;;;;;;;43.20;28.60;;;;;;;6.35;76.08;99823.56;4971739;28;20122;-69
2021/04/20 00:14:12;;;;;;;41.53;27.63;;;;;;;6.32;76.19;99823.66;4966225;28;20095;-69
2021/04/20 00:16:38;;;;;;;37.20;26.75;;;;;;;6.24;76.16;99822.13;4933198;28;20028;-69
2021/04/20 00:19:05;;;;;;;42.50;31.25;;;;;;;6.19;76.38;99815.34;4916029;29;20050;-68
2021/04/20 00:21:31;;;;;;;43.20;32.85;;;;;;;6.16;76.50;99810.22;4915933;29;20580;-68
2021/04/20 00:23:57;;;;;;;44.47;30.52;;;;;;;6.09;76.82;99811.28;4933127;29;20131;-69
2021/04/20 00:26:22;;;;;;;44.53;32.60;;;;;;;6.09;76.82;99809.53;4933670;28;20050;-69
2021/04/20 00:28:47;;;;;;;38.83;25.13;;;;;;;6.09;76.34;99816.53;4954666;28;20073;-69
2021/04/20 00:31:13;;;;;;;44.05;30.08;;;;;;;6.04;76.78;99800.97;4962869;28;20065;-69
2021/04/20 00:33:40;;;;;;;46.60;30.25;;;;;;;6.07;76.37;99808.72;4971663;28;20077;-69
2021/04/20 00:36:06;;;;;;;49.17;31.15;;;;;;;6.05;76.30;99807.91;4971118;28;20037;-68
2021/04/20 00:38:31;;;;;;;44.58;29.80;;;;;;;6.00;76.27;99807.19;4971358;28;20034;-68
2021/04/20 00:41:07;;;;;;;44.00;33.03;;;;;;;5.99;76.55;99805.47;4971453;28;20109;-68
2021/04/20 00:43:43;;;;;;;46.80;31.90;;;;;;;5.91;76.80;99805.69;4971066;28;20372;-68
2021/04/20 00:46:18;;;;;;;45.90;32.17;;;;;;;5.80;76.59;99800.75;4971040;28;20502;-68
2021/04/20 00:48:44;;;;;;;41.65;29.88;;;;;;;5.70;76.88;99803.69;4971251;28;20035;-70
2021/04/20 00:51:10;;;;;;;39.88;30.40;;;;;;;5.58;76.69;99808.34;4972092;28;20065;-70
2021/04/20 00:53:36;;;;;;;43.60;29.20;;;;;;;5.56;77.09;99811.91;4971015;28;20449;-69
2021/04/20 00:56:03;;;;;;;45.72;29.13;;;;;;;5.53;76.88;99805.00;4970966;28;20062;-69
2021/04/20 00:58:28;;;;;;;44.08;31.40;;;;;;;5.48;76.82;99806.06;4970913;28;20471;-69
2021/04/20 01:00:53;;;;;;;43.55;30.23;;;;;;;5.46;77.15;99803.47;4949870;28;20058;-70
2021/04/20 01:03:19;;;;;;;37.60;26.88;;;;;;;5.45;76.87;99803.53;4966711;28;20031;-69
2021/04/20 01:05:46;;;;;;;35.33;27.33;;;;;;;5.45;77.35;99799.16;4959777;28;20508;-67
2021/04/20 01:08:15;;;;;;;43.88;27.77;;;;;;;5.45;77.56;99804.38;4951433;28;20035;-69
2021/04/20 01:10:42;;;;;;;41.72;28.02;;;;;;;5.44;77.44;99797.44;4969267;28;20035;-69
2021/04/20 01:13:10;;;;;;;40.55;26.65;;;;;;;5.43;77.00;99800.94;4970969;28;20046;-70
2021/04/20 01:15:36;;;;;;;52.85;31.90;;;;;;;5.42;77.20;99799.25;4953256;28;20080;-69
2021/04/20 01:18:17;;;;;;;42.70;27.80;;;;;;;5.38;77.27;99792.38;4970800;28;20082;-69
2021/04/20 01:20:49;;;;;;;36.10;26.67;;;;;;;5.37;77.26;99791.53;4970029;28;20066;-68
2021/04/20 01:23:21;;;;;;;41.17;29.85;;;;;;;5.36;76.92;99796.78;4951905;28;20539;-69
2021/04/20 01:25:47;;;;;;;40.47;26.65;;;;;;;5.31;77.09;99786.47;4951503;28;20047;-69
2021/04/20 01:28:13;;;;;;;40.75;28.25;;;;;;;5.27;77.45;99792.69;4951338;28;20110;-69
2021/04/20 01:30:38;;;;;;;44.45;31.75;;;;;;;5.26;77.23;99792.72;4959362;28;20122;-69
2021/04/20 01:33:06;;;;;;;55.83;33.53;;;;;;;5.20;77.56;99795.50;4955587;28;20042;-68
2021/04/20 01:35:36;;;;;;;44.28;27.48;;;;;;;5.18;77.46;99799.91;4936075;28;20201;-68
2021/04/20 01:38:03;;;;;;;38.95;25.27;;;;;;;5.18;77.63;99792.94;4970188;28;20042;-68
2021/04/20 01:40:30;;;;;;;46.78;31.00;;;;;;;5.19;77.88;99801.63;4961311;28;20034;-68
2021/04/20 01:42:57;;;;;;;47.05;28.80;;;;;;;5.13;77.10;99793.06;4915257;29;20032;-68
2021/04/20 01:45:23;;;;;;;43.42;27.20;;;;;;;5.08;77.17;99788.84;4931597;29;20043;-68
2021/04/20 01:47:49;;;;;;;53.55;33.28;;;;;;;5.04;77.26;99792.44;4938720;28;20031;-68
2021/04/20 01:50:15;;;;;;;40.30;26.77;;;;;;;5.01;77.01;99788.16;4974170;28;20031;-69
2021/04/20 01:52:43;;;;;;;44.45;31.23;;;;;;;5.00;76.84;99783.00;4974039;28;24734;-68
2021/04/20 01:55:11;;;;;;;46.50;30.60;;;;;;;4.90;77.06;99782.38;4974017;28;20035;-69
2021/04/20 01:57:36;;;;;;;56.13;33.90;;;;;;;4.87;77.40;99785.91;4962290;28;20035;-69
2021/04/20 02:00:12;;;;;;;39.17;25.42;;;;;;;4.91;77.53;99782.31;4966640;28;20451;-69
2021/04/20 02:02:38;;;;;;;;;;;;;;;4.93;76.73;99785.75;4969645;28;20035;-68
2021/04/20 02:05:06;;;;;;;44.00;27.50;;;;;;;4.86;77.44;99785.94;4973791;28;20017;-68
2021/04/20 02:07:32;;;;;;;44.25;27.25;;;;;;;4.85;76.96;99786.81;4973766;28;20031;-68
2021/04/20 02:09:59;;;;;;;39.72;28.05;;;;;;;4.84;76.97;99792.97;4968585;28;20114;-69
2021/04/20 02:12:25;;;;;;;44.97;31.45;;;;;;;4.82;77.25;99790.38;4954454;28;20035;-68
2021/04/20 02:14:50;;;;;;;52.33;32.65;;;;;;;4.74;77.09;99790.56;4955097;28;20492;-69
2021/04/20 02:17:15;;;;;;;51.55;31.90;;;;;;;4.70;77.64;99783.75;4954709;28;20046;-68
2021/04/20 02:19:42;;;;;;;44.83;31.77;;;;;;;4.69;77.41;99783.75;4951526;28;20404;-70
2021/04/20 02:22:07;;;;;;;48.65;31.33;;;;;;;4.60;76.87;99783.97;4953949;28;20028;-69
2021/04/20 02:24:33;;;;;;;46.47;30.90;;;;;;;4.47;77.22;99789.50;4966013;28;20038;-69
2021/04/20 02:26:59;;;;;;;52.63;33.03;;;;;;;4.45;77.72;99777.38;4934603;29;20511;-68
2021/04/20 02:29:25;;;;;;;46.22;29.52;;;;;;;4.45;77.67;99778.25;4947816;28;20122;-69
2021/04/20 02:31:50;;;;;;;46.28;29.45;;;;;;;4.48;77.69;99780.81;4974006;28;20042;-69
2021/04/20 02:34:16;;;;;;;45.60;28.92;;;;;;;4.50;77.71;99776.41;4973183;28;20069;-69
2021/04/20 02:36:43;;;;;;;56.25;36.30;;;;;;;4.52;77.45;99778.97;4972900;28;20134;-69
2021/04/20 02:39:11;;;;;;;51.72;31.17;;;;;;;4.45;77.41;99775.63;4973460;28;20047;-69
2021/04/20 02:41:41;;;;;;;52.70;33.55;;;;;;;4.30;77.52;99787.28;4966754;28;20035;-69
2021/04/20 02:44:09;;;;;;;51.50;36.28;;;;;;;4.21;77.80;99786.66;4954327;28;20040;-69
2021/04/20 02:46:38;;;;;;;54.13;35.00;;;;;;;4.16;77.65;99791.13;4953962;28;20499;-69
2021/04/20 02:49:04;;;;;;;51.50;31.77;;;;;;;4.16;78.08;99778.97;4954032;28;20046;-70
2021/04/20 02:51:29;;;;;;;45.35;31.08;;;;;;;4.18;77.76;99778.91;4954512;28;20047;-70
2021/04/20 02:53:56;;;;;;;57.47;35.70;;;;;;;4.17;77.73;99780.66;4956673;28;20073;-69
2021/04/20 02:56:23;;;;;;;54.28;34.47;;;;;;;4.14;77.94;99782.50;4938944;29;20440;-69
2021/04/20 02:58:48;;;;;;;47.17;30.95;;;;;;;4.10;78.02;99779.09;4956671;28;20042;-70
2021/04/20 03:01:24;;;;;;;47.55;33.95;;;;;;;4.11;78.31;99774.72;4966087;28;20077;-69
2021/04/20 03:03:50;;;;;;;53.25;34.85;;;;;;;4.14;78.22;99774.66;4975089;28;20046;-69
2021/04/20 03:06:16;;;;;;;59.88;37.90;;;;;;;4.06;77.87;99769.59;4956711;28;20035;-69
2021/04/20 03:08:43;;;;;;;59.95;37.20;;;;;;;4.03;78.23;99778.34;4973962;28;20058;-69
2021/04/20 03:11:15;;;;;;;43.70;29.75;;;;;;;4.12;78.31;99777.31;4974089;28;20047;-69
2021/04/20 03:13:43;;;;;;;63.15;35.72;;;;;;;4.12;77.99;99777.31;4974168;28;20084;-69
2021/04/20 03:16:11;;;;;;;64.57;39.25;;;;;;;4.08;78.14;99775.66;4973430;28;20050;-69
2021/04/20 03:18:37;;;;;;;61.55;35.13;;;;;;;4.04;78.28;99772.28;4973051;28;20039;-70
2021/04/20 03:21:09;;;;;;;60.75;39.63;;;;;;;4.02;78.42;99770.59;4972994;28;20026;-69
2021/04/20 03:23:35;;;;;;;57.47;38.83;;;;;;;4.03;78.00;99769.69;4972165;28;20026;-69
2021/04/20 03:26:02;;;;;;;57.75;39.22;;;;;;;4.05;78.01;99765.28;4972503;28;20038;-69
2021/04/20 03:28:28;;;;;;;57.53;38.05;;;;;;;4.04;78.55;99763.59;4972521;28;20031;-69
2021/04/20 03:30:54;;;;;;;56.80;33.97;;;;;;;4.06;78.67;99765.28;4972724;28;20046;-68
2021/04/20 03:33:36;;;;;;;60.05;35.83;;;;;;;4.01;77.85;99766.25;4954129;28;20118;-69
2021/04/20 03:36:10;;;;;;;67.93;41.63;;;;;;;3.91;77.91;99765.59;4953388;28;20443;-69
2021/04/20 03:38:43;;;;;;;59.78;37.13;;;;;;;3.89;78.44;99764.78;4953407;28;20097;-69
2021/04/20 03:41:30;;;;;;;63.63;38.35;;;;;;;3.83;77.88;99760.56;4953059;28;20452;-69
2021/04/20 03:43:59;;;;;;;68.00;41.30;;;;;;;3.78;78.63;99758.94;4953310;28;20447;-69
2021/04/20 03:46:35;;;;;;;62.67;40.88;;;;;;;3.75;78.56;99764.25;4953174;28;20035;-68
2021/04/20 03:49:07;;;;;;;65.53;40.65;;;;;;;3.72;78.61;99753.88;4953300;28;20403;-66
2021/04/20 03:51:34;;;;;;;61.92;38.67;;;;;;;3.70;78.77;99760.88;4953096;28;20515;-68
2021/04/20 03:54:07;;;;;;;67.55;42.20;;;;;;;3.70;78.61;99759.13;4953057;28;20050;-70
2021/04/20 03:56:33;;;;;;;75.22;46.60;;;;;;;3.68;78.93;99760.03;4952838;28;20031;-69
2021/04/20 03:59:04;;;;;;;64.10;41.22;;;;;;;3.70;79.20;99760.88;4952776;28;20088;-68
2021/04/20 04:01:50;;;;;;;53.92;35.60;;;;;;;3.76;78.33;99750.28;4952835;28;20391;-69
2021/04/20 04:04:18;;;;;;;54.13;35.30;;;;;;;3.79;78.53;99761.53;4952848;28;20039;-69
2021/04/20 04:06:45;;;;;;;64.03;40.83;;;;;;;3.79;78.21;99758.94;4952364;28;20035;-69
2021/04/20 04:09:13;;;;;;;64.22;40.53;;;;;;;3.75;78.44;99752.06;4952634;28;20329;-69
2021/04/20 04:11:45;;;;;;;71.78;42.28;;;;;;;3.72;78.39;99748.66;4952287;28;20050;-69
2021/04/20 04:14:12;;;;;;;69.15;44.83;;;;;;;3.68;78.38;99753.06;4952897;28;20039;-69
2021/04/20 04:16:39;;;;;;;55.05;33.88;;;;;;;3.72;78.55;99759.09;4952252;28;20031;-68
2021/04/20 04:19:05;;;;;;;50.03;33.92;;;;;;;3.74;78.05;99758.16;4952096;28;20539;-69
2021/04/20 04:21:42;;;;;;;69.28;40.45;;;;;;;3.76;78.20;99755.50;4952032;28;20066;-68
2021/04/20 04:24:10;;;;;;;69.20;44.03;;;;;;;3.75;78.00;99745.97;4951463;28;20039;-68
2021/04/20 04:26:37;;;;;;;61.25;41.15;;;;;;;3.70;78.21;99751.28;4950157;28;20062;-69
2021/04/20 04:29:10;;;;;;;55.45;37.22;;;;;;;3.68;78.26;99749.63;4954921;28;20039;-68
2021/04/20 04:31:39;;;;;;;61.97;39.85;;;;;;;3.62;78.31;99753.22;4966074;28;20546;-69
2021/04/20 04:34:05;;;;;;;67.00;43.13;;;;;;;3.61;78.78;99751.47;4971414;28;20054;-69
2021/04/20 04:36:31;;;;;;;58.63;39.53;;;;;;;3.63;79.04;99753.16;4961907;28;20492;-69
2021/04/20 04:38:57;;;;;;;67.18;42.08;;;;;;;3.63;78.13;99749.72;4951761;28;20114;-69
2021/04/20 04:41:23;;;;;;;65.60;41.60;;;;;;;3.57;77.94;99750.72;4951900;28;20487;-69
2021/04/20 04:43:49;;;;;;;62.33;42.30;;;;;;;3.56;77.99;99754.19;4951998;28;20122;-68
2021/04/20 04:46:20;;;;;;;69.78;44.20;;;;;;;3.50;78.27;99748.28;4951567;28;20103;-68
2021/04/20 04:48:46;;;;;;;64.05;39.47;;;;;;;3.47;78.45;99746.59;4953299;28;20187;-68
2021/04/20 04:51:12;;;;;;;65.18;41.42;;;;;;;3.40;78.07;99750.19;4953770;28;20046;-69
2021/04/20 04:53:39;;;;;;;56.95;39.10;;;;;;;3.35;78.56;99746.84;4963455;28;20055;-69
2021/04/20 04:56:05;;;;;;;64.88;41.10;;;;;;;3.39;78.60;99751.94;4951657;28;20054;-69
2021/04/20 04:58:34;;;;;;;62.22;37.75;;;;;;;3.44;78.62;99751.84;4951875;28;20035;-69
2021/04/20 05:01:01;;;;;;;63.75;39.20;;;;;;;3.55;78.36;99746.41;4951888;28;20118;-69
2021/04/20 05:03:26;;;;;;;66.13;42.45;;;;;;;3.64;78.07;99752.28;4952292;28;20043;-68
2021/04/20 05:05:56;;;;;;;67.47;41.97;;;;;;;3.74;78.06;99757.28;4965654;28;20038;-69
2021/04/20 05:08:22;;;;;;;57.60;35.88;;;;;;;3.84;78.05;99751.84;4954500;28;20402;-69
2021/04/20 05:10:49;;;;;;;70.28;43.90;;;;;;;3.95;77.63;99755.97;4963121;28;20515;-72
2021/04/20 05:13:15;;;;;;;76.60;44.42;;;;;;;4.07;77.21;99753.94;4952016;28;20046;-68
2021/04/20 05:15:40;;;;;;;67.78;43.65;;;;;;;4.18;76.79;99758.88;4952308;28;20122;-69
2021/04/20 05:18:10;;;;;;;64.90;42.33;;;;;;;4.33;76.30;99765.50;4953040;28;20113;-69
2021/04/20 05:20:41;;;;;;;60.47;41.75;;;;;;;4.45;76.52;99773.03;4952965;28;20031;-69
2021/04/20 05:23:07;;;;;;;68.80;44.15;;;;;;;4.61;76.08;99770.91;4933946;28;20035;-68
2021/04/20 05:25:33;;;;;;;66.70;44.60;;;;;;;4.78;76.38;99767.03;4952647;28;20093;-69
2021/04/20 05:27:58;;;;;;;63.97;42.10;;;;;;;4.93;74.87;99770.06;4951188;28;20046;-69
2021/04/20 05:30:26;;;;;;;65.60;43.05;;;;;;;5.03;74.91;99770.69;4955395;28;20050;-69
2021/04/20 05:32:52;;;;;;;56.53;38.70;;;;;;;5.15;74.29;99772.97;4938809;29;20631;-66
2021/04/20 05:35:19;;;;;;;63.63;42.00;;;;;;;5.30;73.96;99770.84;4961511;28;20031;-67
2021/04/20 05:37:46;;;;;;;55.10;39.95;;;;;;;5.47;74.03;99770.38;4961831;28;20031;-69
2021/04/20 05:40:13;;;;;;;67.35;42.63;;;;;;;5.57;72.96;99764.81;4959728;28;20066;-69
2021/04/20 05:42:39;;;;;;;56.67;39.20;;;;;;;5.66;73.56;99765.44;4957329;28;20039;-69
2021/04/20 05:45:10;;;;;;;63.58;40.88;;;;;;;5.74;74.08;99764.31;4939977;28;20031;-69
2021/04/20 05:47:45;;;;;;;63.35;45.03;;;;;;;5.85;73.93;99769.22;4954823;28;20075;-69
2021/04/20 05:50:16;;;;;;;63.05;42.97;;;;;;;6.00;73.39;99771.41;4935691;28;20047;-69
2021/04/20 05:52:42;;;;;;;49.40;35.40;;;;;;;6.22;73.21;99771.59;4934393;28;20035;-70
2021/04/20 05:55:07;;;;;;;47.97;34.20;;;;;;;6.47;72.71;99772.56;4953228;28;20031;-69
2021/04/20 05:57:33;;;;;;;55.63;36.80;;;;;;;6.62;72.29;99765.06;4952630;28;20464;-69
2021/04/20 06:00:02;;;;;;;51.67;35.70;;;;;;;6.81;71.63;99772.31;4952562;28;20113;-69
2021/04/20 06:02:33;;;;;;;55.00;37.28;;;;;;;6.92;71.14;99762.31;4934480;28;20488;-68
2021/04/20 06:05:02;;;;;;;58.17;39.42;;;;;;;7.14;70.80;99772.91;4942806;28;20046;-69
2021/04/20 06:07:28;;;;;;;60.80;38.15;;;;;;;7.30;70.44;99770.59;4940555;28;20499;-70
2021/04/20 06:09:55;;;;;;;62.78;43.53;;;;;;;7.50;69.47;99773.31;4951780;28;20058;-69
2021/04/20 06:12:21;;;;;;;52.67;37.65;;;;;;;7.76;69.47;99773.28;4941207;28;20036;-69
2021/04/20 06:14:50;;;;;;;57.35;38.47;;;;;;;8.10;68.16;99772.84;4941709;28;20122;-69
2021/04/20 06:17:19;;;;;;;60.15;37.45;;;;;;;8.42;66.77;99770.72;4930094;28;20067;-69
2021/04/20 06:19:48;;;;;;;47.83;30.75;;;;;;;8.64;66.95;99773.31;4931440;28;20035;-69
2021/04/20 06:22:17;;;;;;;52.42;33.40;;;;;;;8.90;66.11;99775.72;4940062;28;20032;-69
2021/04/20 06:24:44;;;;;;;48.00;32.20;;;;;;;9.16;65.71;99773.75;4923575;28;20050;-68
2021/04/20 06:27:12;;;;;;;54.03;35.92;;;;;;;9.43;64.12;99776.94;4946030;28;20043;-67
2021/04/20 06:29:37;;;;;;;49.72;36.17;;;;;;;9.85;63.96;99775.91;4921481;28;20035;-67
2021/04/20 06:32:03;;;;;;;47.65;37.28;;;;;;;10.34;62.44;99778.88;4943400;28;20047;-68
2021/04/20 06:34:29;;;;;;;56.55;38.83;;;;;;;10.82;60.42;99771.25;4933809;28;20102;-67
2021/04/20 06:36:56;;;;;;;51.85;38.08;;;;;;;11.25;59.15;99774.31;4964258;28;20039;-68
2021/04/20 06:39:22;;;;;;;47.25;33.55;;;;;;;11.69;57.87;99773.75;4967901;28;20699;-69
2021/04/20 06:41:53;;;;;;;41.78;33.47;;;;;;;12.00;57.14;99772.97;4967848;28;20039;-68
2021/04/20 06:44:23;;;;;;;47.75;37.70;;;;;;;12.32;55.99;99768.50;4967493;28;20066;-68
2021/04/20 06:46:52;;;;;;;43.40;32.70;;;;;;;12.81;54.96;99772.78;4967673;28;20510;-68
2021/04/20 06:49:29;;;;;;;42.28;33.88;;;;;;;13.07;54.04;99764.16;4967908;28;20217;-68
2021/04/20 06:52:02;;;;;;;51.72;37.92;;;;;;;13.29;53.68;99769.03;4967872;28;20402;-68
2021/04/20 06:54:35;;;;;;;45.70;29.45;;;;;;;13.45;53.51;99765.44;4959885;28;20031;-68
2021/04/20 06:57:09;;;;;;;40.60;33.35;;;;;;;13.72;52.32;99762.88;4967938;28;20485;-68
2021/04/20 06:59:59;;;;;;;45.08;29.70;;;;;;;13.90;51.47;99758.22;4968506;28;20466;-68
2021/04/20 07:02:59;;;;;;;39.55;30.30;;;;;;;14.21;51.15;99764.22;4951428;28;20101;-66
2021/04/20 07:06:00;;;;;;;44.53;30.48;;;;;;;14.09;50.84;99747.28;4949734;28;20583;-58
2021/04/20 07:08:34;;;;;;;34.60;27.08;;;;;;;13.87;51.27;99755.75;4948590;28;20058;-59
2021/04/20 07:11:05;;;;;;;37.38;25.42;;;;;;;14.08;51.34;99754.41;4948082;28;20051;-59
2021/04/20 07:13:32;;;;;;;32.97;24.08;;;;;;;14.39;50.26;99755.03;4948340;28;20043;-57
2021/04/20 07:16:17;;;;;;;41.35;26.80;;;;;;;14.54;49.54;99753.22;4948721;28;20044;-54
2021/04/20 07:18:59;;;;;;;32.50;24.33;;;;;;;14.73;48.27;99753.69;4948345;28;20031;-55
2021/04/20 07:21:45;;;;;;;34.20;24.65;;;;;;;14.66;48.86;99752.41;4955547;28;20430;-57
2021/04/20 07:24:20;;;;;;;43.13;26.13;;;;;;;14.76;48.29;99755.28;4966805;28;20039;-55
2021/04/20 07:27:04;;;;;;;31.15;23.70;;;;;;;14.87;47.97;99754.59;4947765;28;20530;-57
2021/04/20 07:29:35;;;;;;;31.30;23.17;;;;;;;14.96;47.52;99754.81;4931516;29;20054;-57
2021/04/20 07:32:40;;;;;;;26.33;20.45;;;;;;;15.09;46.12;99743.34;4929244;29;20043;-56
2021/04/20 07:35:33;;;;;;;32.00;22.65;;;;;;;15.21;45.88;99748.66;4904431;29;20575;-59
2021/04/20 07:38:15;;;;;;;39.72;26.63;;;;;;;15.36;45.85;99751.22;4928539;29;20039;-56
2021/04/20 07:41:00;;;;;;;28.95;23.35;;;;;;;15.54;45.06;99749.91;4966309;28;20035;-55
2021/04/20 07:43:56;;;;;;;27.27;19.83;;;;;;;15.80;43.95;99747.25;4967087;28;20039;-53
2021/04/20 07:46:35;;;;;;;29.40;20.52;;;;;;;15.87;44.06;99754.69;4965344;28;20042;-57
2021/04/20 07:49:11;;;;;;;22.05;18.75;;;;;;;16.25;43.47;99736.91;4966787;28;20082;-58
2021/04/20 07:51:38;;;;;;;23.10;18.58;;;;;;;16.36;42.70;99744.09;4967083;28;20081;-54
2021/04/20 07:54:31;;;;;;;28.80;21.63;;;;;;;16.53;42.54;99744.53;4957784;28;20043;-55
2021/04/20 07:57:25;;;;;;;27.67;21.98;;;;;;;16.69;42.17;99746.91;4947550;28;20492;-59
2021/04/20 07:59:53;;;;;;;29.85;21.73;;;;;;;17.03;40.86;99735.50;4930177;28;20035;-55
2021/04/20 08:02:39;;;;;;;29.80;21.25;;;;;;;17.31;40.29;99737.75;4950524;28;20046;-59
2021/04/20 08:05:35;;;;;;;23.67;16.38;;;;;;;17.56;38.97;99735.81;4959621;28;20828;-56
2021/04/20 08:08:04;;;;;;;;;;;;;;;17.57;39.04;99732.16;4965559;28;20062;-56
2021/04/20 08:10:37;;;;;;;20.38;16.70;;;;;;;17.52;39.33;99734.34;4966887;28;20433;-59
2021/04/20 08:13:29;;;;;;;23.63;18.13;;;;;;;17.82;38.98;99728.44;4947617;28;20070;-56
2021/04/20 08:15:58;;;;;;;35.38;20.90;;;;;;;18.16;38.30;99731.03;4955233;28;20142;-55
2021/04/20 08:18:32;;;;;;;24.40;18.10;;;;;;;18.65;37.10;99730.47;4951000;28;20047;-69
2021/04/20 08:20:59;;;;;;;18.83;15.20;;;;;;;18.82;36.30;99725.59;4929006;28;20090;-69
2021/04/20 08:23:26;;;;;;;27.38;17.70;;;;;;;19.01;36.43;99728.41;4951195;28;20053;-70
2021/04/20 08:26:23;;;;;;;27.00;18.45;;;;;;;19.01;35.65;99731.06;4923875;28;20056;-69
2021/04/20 08:29:05;;;;;;;14.55;13.00;;;;;;;19.05;34.66;99729.84;4946286;28;20115;-69
2021/04/20 08:31:45;;;;;;;13.05;11.05;;;;;;;19.02;34.14;99722.06;4940327;28;20039;-71
2021/04/20 08:34:40;;;;;;;17.63;13.30;;;;;;;19.36;34.26;99729.84;4930629;28;20630;-70
2021/04/20 08:37:24;;;;;;;13.70;11.32;;;;;;;19.33;34.16;99727.44;4945947;28;20116;-69
2021/04/20 08:40:20;;;;;;;16.63;11.43;;;;;;;19.61;33.81;99725.88;4947054;28;20043;-68
2021/04/20 08:43:23;;;;;;;14.65;9.70;;;;;;;20.20;32.32;99724.22;4949968;28;20043;-69
2021/04/20 08:46:13;;;;;;;27.85;12.95;;;;;;;20.25;31.82;99721.16;4946662;28;20475;-69
2021/04/20 08:48:50;;;;;;;10.85;9.52;;;;;;;20.52;31.53;99723.13;4960938;28;20125;-69
2021/04/20 08:51:18;;;;;;;11.48;9.07;;;;;;;20.99;30.41;99715.22;4965503;28;20053;-70
2021/04/20 08:54:12;;;;;;;13.63;10.80;;;;;;;21.10;30.57;99715.06;4952863;28;20043;-71
2021/04/20 08:56:58;;;;;;;17.60;10.57;;;;;;;20.99;30.58;99721.44;4946139;28;20035;-71
2021/04/20 08:59:30;;;;;;;13.77;11.90;;;;;;;20.80;30.78;99716.97;4929275;29;20039;-71
2021/04/20 09:02:22;;;;;;;21.92;13.10;;;;;;;20.94;30.92;99712.13;4946813;28;20043;-71
2021/04/20 09:05:02;;;;;;;16.75;12.13;;;;;;;20.92;30.42;99720.34;4946073;28;20043;-68
2021/04/20 09:07:58;;;;;;;12.65;11.30;;;;;;;21.44;29.66;99703.84;4946125;28;20122;-70
2021/04/20 09:11:02;;;;;;;;;;;;;;;21.09;29.64;99710.69;4946599;28;20083;-71
2021/04/20 09:13:35;;;;;;;12.70;11.32;;;;;;;21.22;29.00;99713.91;4876005;29;19971;-71
2021/04/20 09:16:05;;;;;;;16.33;12.32;;;;;;;21.50;29.92;99711.28;4868323;29;20167;-72
2021/04/20 09:18:45;;;;;;;18.45;14.55;;;;;;;21.44;30.36;99710.06;4899834;29;20051;-70
2021/04/20 09:21:13;;;;;;;22.95;16.13;;;;;;;21.21;30.78;99709.53;4946373;28;20523;-69
2021/04/20 09:24:04;;;;;;;17.42;15.45;;;;;;;21.53;30.37;99705.63;4946853;28;20043;-71
2021/04/20 09:26:53;;;;;;;18.90;13.57;;;;;;;21.89;29.60;99705.75;4965296;28;20845;-70
2021/04/20 09:29:57;;;;;;;18.35;14.77;;;;;;;22.54;28.66;99707.44;4955495;28;20046;-70
2021/04/20 09:32:30;;;;;;;17.20;14.57;;;;;;;22.98;27.44;99712.84;4874903;29;20071;-69
2021/04/20 09:34:56;;;;;;;26.35;13.23;;;;;;;21.32;29.54;99710.34;4883475;29;20091;-69
2021/04/20 09:37:23;;;;;;;14.88;10.75;;;;;;;21.25;29.17;99714.63;4890560;28;20031;-68
2021/04/20 09:39:54;;;;;;;19.77;11.60;;;;;;;20.49;30.29;99712.72;4946159;28;20035;-69
2021/04/20 09:42:21;;;;;;;12.13;10.23;;;;;;;21.61;28.73;99715.66;4945740;28;20086;-69
2021/04/20 09:45:11;;;;;;;19.85;13.82;;;;;;;22.87;26.85;99704.00;4945723;28;20039;-69
2021/04/20 09:47:46;;;;;;;20.45;14.15;;;;;;;23.52;26.15;99703.59;4945269;28;20878;-71
2021/04/20 09:50:14;;;;;;;14.82;12.75;;;;;;;24.05;25.14;99712.41;4946070;28;20098;-69
2021/04/20 09:53:01;;;;;;;17.60;14.10;;;;;;;24.09;25.10;99710.22;4935651;28;20139;-70
2021/04/20 09:55:37;;;;;;;16.33;13.25;;;;;;;24.54;25.03;99707.13;4946619;28;20058;-68
2021/04/20 09:58:06;;;;;;;17.63;14.60;;;;;;;24.92;25.22;99706.63;4945395;28;20035;-69
2021/04/20 10:00:33;;;;;;;24.88;14.55;;;;;;;24.36;24.89;99711.78;4955636;28;20063;-69
2021/04/20 10:03:17;;;;;;;14.90;13.30;;;;;;;22.79;27.04;99706.66;4965153;28;20042;-69
2021/04/20 10:05:48;;;;;;;16.52;13.23;;;;;;;22.31;27.53;99707.06;4964590;28;20408;-68
2021/04/20 10:08:33;;;;;;;15.82;13.23;;;;;;;21.59;28.63;99707.72;4965171;28;20518;-70
2021/04/20 10:11:26;;;;;;;18.00;13.50;;;;;;;23.06;26.53;99711.06;4965482;28;20043;-69
2021/04/20 10:14:02;;;;;;;17.05;13.40;;;;;;;23.74;25.18;99702.19;4968271;28;20113;-70
2021/04/20 10:16:40;;;;;;;20.60;14.27;;;;;;;24.24;24.58;99699.63;4948903;28;20039;-71
2021/04/20 10:19:11;;;;;;;17.85;13.02;;;;;;;24.66;24.22;99698.69;4944369;28;20043;-69
2021/04/20 10:22:00;;;;;;;16.52;12.48;;;;;;;24.59;23.54;99690.47;4949292;28;20043;-70
2021/04/20 10:24:27;;;;;;;13.35;11.13;;;;;;;23.54;24.96;99695.38;4948880;28;20039;-71
2021/04/20 10:27:04;;;;;;;19.40;12.65;;;;;;;24.50;23.96;99689.59;4949350;28;20039;-71
2021/04/20 10:29:51;;;;;;;13.30;11.13;;;;;;;25.18;23.28;99680.31;4949341;28;20130;-71
2021/04/20 10:32:21;;;;;;;19.27;13.60;;;;;;;25.76;22.18;99680.09;4948975;28;20047;-71
2021/04/20 10:34:50;;;;;;;15.02;12.52;;;;;;;25.87;22.39;99682.44;4948854;28;20459;-71
2021/04/20 10:37:18;;;;;;;15.82;12.77;;;;;;;24.09;24.26;99672.50;4948627;28;20452;-70
2021/04/20 10:39:46;;;;;;;14.27;12.30;;;;;;;22.41;26.33;99678.28;4932058;28;20035;-68
2021/04/20 10:42:14;;;;;;;19.83;12.50;;;;;;;21.29;27.93;99673.97;4948833;28;20040;-68
2021/04/20 10:44:41;;;;;;;21.60;12.68;;;;;;;20.57;29.57;99673.53;4940621;28;20062;-69
2021/04/20 10:47:08;;;;;;;17.77;13.98;;;;;;;20.99;29.76;99677.69;4931782;28;20067;-70
2021/04/20 10:49:34;;;;;;;16.95;14.70;;;;;;;21.21;29.40;99666.63;4964446;28;20592;-70
2021/04/20 10:52:10;;;;;;;19.20;15.65;;;;;;;21.20;29.83;99662.25;4947934;28;20507;-71
2021/04/20 10:54:41;;;;;;;18.15;13.55;;;;;;;20.61;30.47;99668.75;4968342;28;20038;-71
2021/04/20 10:57:12;;;;;;;21.73;16.92;;;;;;;19.65;31.89;99664.94;4950838;28;20039;-70
2021/04/20 10:59:40;;;;;;;22.35;15.90;;;;;;;19.50;32.73;99667.16;4969599;28;20035;-70
2021/04/20 11:02:17;;;;;;;19.40;16.33;;;;;;;19.50;33.16;99670.66;4951316;28;20099;-69
2021/04/20 11:04:44;;;;;;;19.60;17.33;;;;;;;19.43;33.28;99663.34;4960029;28;20031;-70
2021/04/20 11:07:19;;;;;;;21.17;16.45;;;;;;;19.39;33.29;99668.09;4961429;28;20578;-69
2021/04/20 11:09:56;;;;;;;24.33;17.88;;;;;;;19.09;33.82;99664.44;4950699;28;20045;-69
2021/04/20 11:12:22;;;;;;;36.10;18.30;;;;;;;18.89;34.20;99670.66;4948724;28;20043;-69
2021/04/20 11:14:50;;;;;;;22.38;17.48;;;;;;;18.60;34.49;99665.94;4940961;28;20034;-67
2021/04/20 11:17:34;;;;;;;26.27;18.75;;;;;;;18.50;35.28;99659.69;4968417;28;20046;-69
2021/04/20 11:20:08;;;;;;;24.90;15.43;;;;;;;18.15;35.46;99663.50;4966738;28;20094;-69
2021/04/20 11:22:46;;;;;;;27.55;16.73;;;;;;;17.97;36.43;99665.00;4950924;28;20715;-70
2021/04/20 11:25:24;;;;;;;23.02;16.05;;;;;;;17.89;36.26;99662.09;4959163;28;20043;-69
2021/04/20 11:27:56;;;;;;;22.58;16.67;;;;;;;17.73;36.44;99667.81;4967770;28;20489;-69
2021/04/20 11:30:27;;;;;;;30.58;18.50;;;;;;;17.49;37.17;99667.97;4967707;28;20059;-69
2021/04/20 11:32:53;;;;;;;19.70;16.58;;;;;;;17.37;36.85;99657.31;4950860;28;20058;-69
2021/04/20 11:35:21;;;;;;;21.00;15.52;;;;;;;17.20;37.13;99663.13;4953900;28;20051;-69
2021/04/20 11:37:50;;;;;;;21.40;16.70;;;;;;;17.10;37.23;99660.34;4929304;29;20039;-70
2021/04/20 11:40:37;;;;;;;67.05;19.77;;;;;;;17.01;37.06;99657.56;4929204;29;20044;-68
2021/04/20 11:43:04;;;;;;;18.30;14.90;;;;;;;16.91;37.07;99655.63;4930001;28;20078;-68
2021/04/20 11:45:36;;;;;;;43.80;18.45;;;;;;;16.77;37.58;99658.47;4928961;29;20714;-68